sensor_id;sensor_type;location;lat;lon;timestamp;pressure;altitude;pressure_sealevel;temperature;humidity
78170;BME280;67412;49.892;14.490;2023-06-22T00:01:55;97519.13;;;16.53;98.13
78170;BME280;67412;49.892;14.490;2023-06-22T00:04:20;97534.03;;;16.47;97.94
78170;BME280;67412;49.892;14.490;2023-06-22T00:06:46;97538.19;;;16.51;98.46
78170;BME280;67412;49.892;14.490;2023-06-22T00:09:11;97543.72;;;16.41;95.99
78170;BME280;67412;49.892;14.490;2023-06-22T00:11:37;97537.06;;;16.34;95.54
78170;BME280;67412;49.892;14.490;2023-06-22T00:14:03;97543.41;;;16.24;97.18
78170;BME280;67412;49.892;14.490;2023-06-22T00:16:30;97541.06;;;16.17;97.63
78170;BME280;67412;49.892;14.490;2023-06-22T00:18:55;97535.03;;;16.16;100.00
78170;BME280;67412;49.892;14.490;2023-06-22T00:21:20;97535.78;;;16.20;100.00
78170;BME280;67412;49.892;14.490;2023-06-22T00:23:46;97535.63;;;16.24;99.46
78170;BME280;67412;49.892;14.490;2023-06-22T00:26:12;97537.19;;;16.30;98.91
78170;BME280;67412;49.892;14.490;2023-06-22T00:28:38;97536.19;;;16.34;99.54
78170;BME280;67412;49.892;14.490;2023-06-22T00:31:03;97533.44;;;16.38;99.81
78170;BME280;67412;49.892;14.490;2023-06-22T00:33:29;97535.84;;;16.44;99.53
78170;BME280;67412;49.892;14.490;2023-06-22T00:35:54;97536.94;;;16.37;99.82
78170;BME280;67412;49.892;14.490;2023-06-22T00:38:20;97534.34;;;16.37;99.65
78170;BME280;67412;49.892;14.490;2023-06-22T00:40:45;97532.16;;;16.25;98.89
78170;BME280;67412;49.892;14.490;2023-06-22T00:43:11;97528.97;;;16.17;96.82
78170;BME280;67412;49.892;14.490;2023-06-22T00:45:36;97526.94;;;16.01;96.31
78170;BME280;67412;49.892;14.490;2023-06-22T00:48:02;97529.97;;;15.87;95.70
78170;BME280;67412;49.892;14.490;2023-06-22T00:50:32;97526.75;;;15.79;96.93
78170;BME280;67412;49.892;14.490;2023-06-22T00:53:01;97514.56;;;15.82;97.86
78170;BME280;67412;49.892;14.490;2023-06-22T00:55:29;97514.56;;;15.82;98.09
78170;BME280;67412;49.892;14.490;2023-06-22T00:57:55;97503.41;;;15.80;96.74
78170;BME280;67412;49.892;14.490;2023-06-22T01:00:23;97496.09;;;15.93;99.24
78170;BME280;67412;49.892;14.490;2023-06-22T01:02:52;97495.34;;;15.89;100.00
78170;BME280;67412;49.892;14.490;2023-06-22T01:05:19;97500.59;;;15.86;100.00
78170;BME280;67412;49.892;14.490;2023-06-22T01:10:25;97498.69;;;16.19;100.00
78170;BME280;67412;49.892;14.490;2023-06-22T01:12:55;97494.38;;;16.18;100.00
78170;BME280;67412;49.892;14.490;2023-06-22T01:15:28;97501.34;;;16.16;100.00
78170;BME280;67412;49.892;14.490;2023-06-22T01:17:56;97497.22;;;16.11;99.27
78170;BME280;67412;49.892;14.490;2023-06-22T01:20:23;97495.38;;;15.88;97.69
78170;BME280;67412;49.892;14.490;2023-06-22T01:23:02;97485.03;;;15.88;97.41
78170;BME280;67412;49.892;14.490;2023-06-22T01:25:43;97489.09;;;15.95;98.93
78170;BME280;67412;49.892;14.490;2023-06-22T01:28:19;97484.91;;;15.91;98.74
78170;BME280;67412;49.892;14.490;2023-06-22T01:30:49;97487.38;;;15.95;99.18
78170;BME280;67412;49.892;14.490;2023-06-22T01:33:15;97484.81;;;15.94;97.14
78170;BME280;67412;49.892;14.490;2023-06-22T01:35:42;97492.78;;;15.88;96.58
78170;BME280;67412;49.892;14.490;2023-06-22T01:38:09;97492.19;;;15.80;98.38
78170;BME280;67412;49.892;14.490;2023-06-22T01:40:36;97492.94;;;15.83;98.46
78170;BME280;67412;49.892;14.490;2023-06-22T01:43:02;97497.13;;;15.87;98.42
78170;BME280;67412;49.892;14.490;2023-06-22T01:45:28;97494.91;;;15.75;99.56
78170;BME280;67412;49.892;14.490;2023-06-22T01:47:54;97502.59;;;15.78;99.06
78170;BME280;67412;49.892;14.490;2023-06-22T01:50:20;97517.31;;;15.78;100.00
78170;BME280;67412;49.892;14.490;2023-06-22T01:52:46;97514.47;;;15.85;99.60
78170;BME280;67412;49.892;14.490;2023-06-22T01:55:11;97526.59;;;15.85;99.77
78170;BME280;67412;49.892;14.490;2023-06-22T01:57:37;97522.94;;;15.90;98.72
78170;BME280;67412;49.892;14.490;2023-06-22T02:00:06;97523.19;;;15.83;99.74
78170;BME280;67412;49.892;14.490;2023-06-22T02:02:37;97523.25;;;15.81;100.00
78170;BME280;67412;49.892;14.490;2023-06-22T02:05:08;97526.75;;;15.79;100.00
78170;BME280;67412;49.892;14.490;2023-06-22T02:07:41;97530.16;;;15.81;100.00
78170;BME280;67412;49.892;14.490;2023-06-22T02:10:11;97523.31;;;15.78;100.00
78170;BME280;67412;49.892;14.490;2023-06-22T02:12:40;97522.38;;;15.81;100.00
78170;BME280;67412;49.892;14.490;2023-06-22T02:15:07;97517.88;;;15.86;100.00
78170;BME280;67412;49.892;14.490;2023-06-22T02:17:34;97522.31;;;15.82;100.00
78170;BME280;67412;49.892;14.490;2023-06-22T02:20:02;97514.47;;;15.85;100.00
78170;BME280;67412;49.892;14.490;2023-06-22T02:22:29;97523.19;;;15.83;100.00
78170;BME280;67412;49.892;14.490;2023-06-22T02:24:54;97527.56;;;15.81;100.00
78170;BME280;67412;49.892;14.490;2023-06-22T02:27:19;97520.44;;;15.87;100.00
78170;BME280;67412;49.892;14.490;2023-06-22T02:29:44;97519.97;;;15.75;100.00
78170;BME280;67412;49.892;14.490;2023-06-22T02:32:10;97515.97;;;15.65;100.00
78170;BME280;67412;49.892;14.490;2023-06-22T02:34:35;97523.25;;;15.54;100.00
78170;BME280;67412;49.892;14.490;2023-06-22T02:37:01;97509.19;;;15.61;100.00
78170;BME280;67412;49.892;14.490;2023-06-22T02:39:27;97522.13;;;15.62;100.00
78170;BME280;67412;49.892;14.490;2023-06-22T02:41:53;97520.19;;;15.69;100.00
78170;BME280;67412;49.892;14.490;2023-06-22T02:44:20;97511.75;;;15.62;100.00
78170;BME280;67412;49.892;14.490;2023-06-22T02:46:46;97513.47;;;15.63;100.00
78170;BME280;67412;49.892;14.490;2023-06-22T02:49:12;97509.84;;;15.67;100.00
78170;BME280;67412;49.892;14.490;2023-06-22T02:51:44;97508.41;;;15.59;100.00
78170;BME280;67412;49.892;14.490;2023-06-22T02:54:10;97502.50;;;15.55;100.00
78170;BME280;67412;49.892;14.490;2023-06-22T02:56:35;97504.16;;;15.56;100.00
78170;BME280;67412;49.892;14.490;2023-06-22T02:59:02;97505.38;;;15.44;100.00
78170;BME280;67412;49.892;14.490;2023-06-22T03:01:28;97501.88;;;15.45;100.00
78170;BME280;67412;49.892;14.490;2023-06-22T03:03:55;97499.38;;;15.42;100.00
78170;BME280;67412;49.892;14.490;2023-06-22T03:06:21;97503.03;;;15.37;100.00
78170;BME280;67412;49.892;14.490;2023-06-22T03:08:58;97503.84;;;15.37;100.00
78170;BME280;67412;49.892;14.490;2023-06-22T03:11:23;97501.97;;;15.42;100.00
78170;BME280;67412;49.892;14.490;2023-06-22T03:13:49;97501.78;;;15.50;100.00
78170;BME280;67412;49.892;14.490;2023-06-22T03:16:14;97502.25;;;15.63;100.00
78170;BME280;67412;49.892;14.490;2023-06-22T03:18:39;97502.94;;;15.68;100.00
78170;BME280;67412;49.892;14.490;2023-06-22T03:21:05;97506.44;;;15.67;100.00
78170;BME280;67412;49.892;14.490;2023-06-22T03:23:30;97511.38;;;15.74;99.00
78170;BME280;67412;49.892;14.490;2023-06-22T03:25:56;97514.72;;;15.78;100.00
78170;BME280;67412;49.892;14.490;2023-06-22T03:28:21;97511.97;;;15.82;100.00
78170;BME280;67412;49.892;14.490;2023-06-22T03:30:47;97509.84;;;15.95;100.00
78170;BME280;67412;49.892;14.490;2023-06-22T03:33:12;97513.28;;;15.95;99.82
78170;BME280;67412;49.892;14.490;2023-06-22T03:35:38;97514.56;;;16.09;99.58
78170;BME280;67412;49.892;14.490;2023-06-22T03:38:03;97522.50;;;16.04;99.91
78170;BME280;67412;49.892;14.490;2023-06-22T03:40:31;97512.81;;;16.09;99.90
78170;BME280;67412;49.892;14.490;2023-06-22T03:42:56;97516.22;;;16.11;100.00
78170;BME280;67412;49.892;14.490;2023-06-22T03:45:21;97520.69;;;16.06;100.00
78170;BME280;67412;49.892;14.490;2023-06-22T03:47:47;97507.38;;;16.17;100.00
78170;BME280;67412;49.892;14.490;2023-06-22T03:50:12;97506.19;;;16.27;100.00
78170;BME280;67412;49.892;14.490;2023-06-22T03:52:38;97504.38;;;16.29;100.00
78170;BME280;67412;49.892;14.490;2023-06-22T03:55:05;97502.22;;;16.41;100.00
78170;BME280;67412;49.892;14.490;2023-06-22T03:57:31;97491.41;;;16.54;99.52
78170;BME280;67412;49.892;14.490;2023-06-22T03:59:57;97487.53;;;16.67;99.08
78170;BME280;67412;49.892;14.490;2023-06-22T04:02:23;97489.31;;;16.65;99.22
78170;BME280;67412;49.892;14.490;2023-06-22T04:04:48;97486.91;;;16.60;99.79
78170;BME280;67412;49.892;14.490;2023-06-22T04:07:13;97487.16;;;16.53;100.00
78170;BME280;67412;49.892;14.490;2023-06-22T04:09:39;97484.19;;;16.63;100.00
78170;BME280;67412;49.892;14.490;2023-06-22T04:12:05;97486.56;;;16.69;100.00
78170;BME280;67412;49.892;14.490;2023-06-22T04:14:30;97475.13;;;16.75;99.27
78170;BME280;67412;49.892;14.490;2023-06-22T04:16:55;97479.53;;;16.96;99.40
78170;BME280;67412;49.892;14.490;2023-06-22T04:19:21;97481.81;;;17.05;99.82
78170;BME280;67412;49.892;14.490;2023-06-22T04:21:46;97487.31;;;17.19;99.54
78170;BME280;67412;49.892;14.490;2023-06-22T04:24:13;97485.69;;;17.17;100.00
78170;BME280;67412;49.892;14.490;2023-06-22T04:26:39;97489.66;;;17.25;100.00
78170;BME280;67412;49.892;14.490;2023-06-22T04:29:06;97483.13;;;17.15;100.00
78170;BME280;67412;49.892;14.490;2023-06-22T04:31:37;97491.94;;;17.34;100.00
78170;BME280;67412;49.892;14.490;2023-06-22T04:34:04;97484.81;;;17.39;100.00
78170;BME280;67412;49.892;14.490;2023-06-22T04:36:37;97494.28;;;17.40;99.71
78170;BME280;67412;49.892;14.490;2023-06-22T04:39:10;97498.56;;;17.42;99.46
78170;BME280;67412;49.892;14.490;2023-06-22T04:41:40;97493.38;;;17.42;99.72
78170;BME280;67412;49.892;14.490;2023-06-22T04:44:09;97491.56;;;17.44;99.89
78170;BME280;67412;49.892;14.490;2023-06-22T04:46:35;97496.53;;;17.50;100.00
78170;BME280;67412;49.892;14.490;2023-06-22T04:49:07;97489.38;;;17.55;100.00
78170;BME280;67412;49.892;14.490;2023-06-22T04:51:42;97503.69;;;17.66;100.00
78170;BME280;67412;49.892;14.490;2023-06-22T04:54:08;97497.84;;;17.83;99.00
78170;BME280;67412;49.892;14.490;2023-06-22T04:56:34;97500.78;;;17.74;98.47
78170;BME280;67412;49.892;14.490;2023-06-22T04:59:00;97506.59;;;17.59;99.28
78170;BME280;67412;49.892;14.490;2023-06-22T05:01:25;97509.75;;;17.44;100.00
78170;BME280;67412;49.892;14.490;2023-06-22T05:03:51;97510.97;;;17.58;100.00
78170;BME280;67412;49.892;14.490;2023-06-22T05:06:23;97519.41;;;17.63;99.89
78170;BME280;67412;49.892;14.490;2023-06-22T05:08:56;97530.53;;;17.67;99.68
78170;BME280;67412;49.892;14.490;2023-06-22T05:11:26;97523.22;;;17.76;99.25
78170;BME280;67412;49.892;14.490;2023-06-22T05:13:52;97529.44;;;17.94;99.68
78170;BME280;67412;49.892;14.490;2023-06-22T05:16:17;97533.06;;;17.90;99.49
78170;BME280;67412;49.892;14.490;2023-06-22T05:18:52;97537.66;;;18.05;98.19
78170;BME280;67412;49.892;14.490;2023-06-22T05:21:21;97527.97;;;18.09;98.82
78170;BME280;67412;49.892;14.490;2023-06-22T05:23:46;97528.38;;;18.20;95.88
78170;BME280;67412;49.892;14.490;2023-06-22T05:26:12;97528.31;;;18.21;97.71
78170;BME280;67412;49.892;14.490;2023-06-22T05:28:37;97532.72;;;18.19;98.05
78170;BME280;67412;49.892;14.490;2023-06-22T05:31:02;97530.63;;;18.29;98.12
78170;BME280;67412;49.892;14.490;2023-06-22T05:33:29;97531.97;;;18.38;97.65
78170;BME280;67412;49.892;14.490;2023-06-22T05:35:54;97528.84;;;18.50;97.94
78170;BME280;67412;49.892;14.490;2023-06-22T05:38:19;97530.88;;;18.63;97.61
78170;BME280;67412;49.892;14.490;2023-06-22T05:40:45;97524.25;;;18.76;98.13
78170;BME280;67412;49.892;14.490;2023-06-22T05:43:10;97519.81;;;18.78;97.25
78170;BME280;67412;49.892;14.490;2023-06-22T05:45:35;97535.63;;;18.94;98.04
78170;BME280;67412;49.892;14.490;2023-06-22T05:48:01;97537.47;;;18.92;97.50
78170;BME280;67412;49.892;14.490;2023-06-22T05:50:26;97535.38;;;19.00;97.32
78170;BME280;67412;49.892;14.490;2023-06-22T05:52:52;97549.00;;;19.05;96.19
78170;BME280;67412;49.892;14.490;2023-06-22T05:55:17;97551.28;;;19.13;95.01
78170;BME280;67412;49.892;14.490;2023-06-22T05:57:44;97562.84;;;19.26;95.37
78170;BME280;67412;49.892;14.490;2023-06-22T06:00:10;97553.03;;;19.51;95.09
78170;BME280;67412;49.892;14.490;2023-06-22T06:02:36;97561.91;;;19.66;94.16
78170;BME280;67412;49.892;14.490;2023-06-22T06:05:02;97555.81;;;19.84;95.74
78170;BME280;67412;49.892;14.490;2023-06-22T06:07:28;97553.06;;;20.23;94.67
78170;BME280;67412;49.892;14.490;2023-06-22T06:09:54;97561.78;;;20.41;94.41
78170;BME280;67412;49.892;14.490;2023-06-22T06:12:19;97545.84;;;20.47;94.54
78170;BME280;67412;49.892;14.490;2023-06-22T06:14:45;97558.72;;;20.67;93.50
78170;BME280;67412;49.892;14.490;2023-06-22T06:17:10;97565.94;;;20.79;92.00
78170;BME280;67412;49.892;14.490;2023-06-22T06:19:36;97554.25;;;20.86;92.65
78170;BME280;67412;49.892;14.490;2023-06-22T06:22:01;97549.59;;;21.08;92.64
78170;BME280;67412;49.892;14.490;2023-06-22T06:24:26;97553.41;;;21.36;89.90
78170;BME280;67412;49.892;14.490;2023-06-22T06:26:52;97546.84;;;21.44;90.26
78170;BME280;67412;49.892;14.490;2023-06-22T06:29:17;97546.84;;;21.60;87.32
78170;BME280;67412;49.892;14.490;2023-06-22T06:31:42;97552.09;;;21.76;86.60
78170;BME280;67412;49.892;14.490;2023-06-22T06:34:08;97546.53;;;21.66;86.26
78170;BME280;67412;49.892;14.490;2023-06-22T06:36:33;97549.56;;;21.74;87.43
78170;BME280;67412;49.892;14.490;2023-06-22T06:38:58;97541.13;;;21.85;87.73
78170;BME280;67412;49.892;14.490;2023-06-22T06:41:24;97541.28;;;21.97;87.35
78170;BME280;67412;49.892;14.490;2023-06-22T06:43:49;97543.34;;;22.08;86.35
78170;BME280;67412;49.892;14.490;2023-06-22T06:46:14;97535.13;;;22.14;84.62
78170;BME280;67412;49.892;14.490;2023-06-22T06:48:40;97534.31;;;22.28;84.20
78170;BME280;67412;49.892;14.490;2023-06-22T06:51:05;97532.72;;;22.55;84.33
78170;BME280;67412;49.892;14.490;2023-06-22T06:53:34;97531.50;;;22.76;84.41
78170;BME280;67412;49.892;14.490;2023-06-22T06:56:00;97525.91;;;22.82;84.78
78170;BME280;67412;49.892;14.490;2023-06-22T06:58:25;97527.03;;;22.92;86.29
78170;BME280;67412;49.892;14.490;2023-06-22T07:00:51;97527.22;;;23.03;83.70
78170;BME280;67412;49.892;14.490;2023-06-22T07:03:16;97524.53;;;23.05;82.53
78170;BME280;67412;49.892;14.490;2023-06-22T07:05:41;97533.22;;;23.20;84.00
78170;BME280;67412;49.892;14.490;2023-06-22T07:08:07;97524.13;;;23.39;82.92
78170;BME280;67412;49.892;14.490;2023-06-22T07:10:32;97520.31;;;23.45;80.78
78170;BME280;67412;49.892;14.490;2023-06-22T07:12:58;97516.28;;;23.53;80.37
78170;BME280;67412;49.892;14.490;2023-06-22T07:15:23;97510.53;;;23.61;81.34
78170;BME280;67412;49.892;14.490;2023-06-22T07:17:48;97516.16;;;23.55;78.66
78170;BME280;67412;49.892;14.490;2023-06-22T07:20:14;97512.22;;;23.62;77.70
78170;BME280;67412;49.892;14.490;2023-06-22T07:22:43;97504.63;;;23.72;79.95
78170;BME280;67412;49.892;14.490;2023-06-22T07:25:09;97503.84;;;23.70;78.08
78170;BME280;67412;49.892;14.490;2023-06-22T07:27:39;97505.91;;;23.79;77.24
78170;BME280;67412;49.892;14.490;2023-06-22T07:30:09;97504.34;;;23.62;80.16
78170;BME280;67412;49.892;14.490;2023-06-22T07:32:35;97503.13;;;23.94;77.46
78170;BME280;67412;49.892;14.490;2023-06-22T07:35:00;97501.75;;;24.16;78.34
78170;BME280;67412;49.892;14.490;2023-06-22T07:37:27;97506.94;;;24.30;76.82
78170;BME280;67412;49.892;14.490;2023-06-22T07:39:53;97497.94;;;24.46;74.98
78170;BME280;67412;49.892;14.490;2023-06-22T07:42:23;97490.91;;;24.60;73.50
78170;BME280;67412;49.892;14.490;2023-06-22T07:44:48;97485.34;;;24.64;74.22
78170;BME280;67412;49.892;14.490;2023-06-22T07:47:16;97486.34;;;24.88;72.27
78170;BME280;67412;49.892;14.490;2023-06-22T07:49:43;97486.56;;;24.85;72.88
78170;BME280;67412;49.892;14.490;2023-06-22T07:52:08;97488.84;;;25.02;72.61
78170;BME280;67412;49.892;14.490;2023-06-22T07:54:34;97491.69;;;25.12;71.67
78170;BME280;67412;49.892;14.490;2023-06-22T07:56:59;97483.53;;;25.40;69.98
78170;BME280;67412;49.892;14.490;2023-06-22T07:59:24;97480.09;;;25.53;72.37
78170;BME280;67412;49.892;14.490;2023-06-22T08:01:49;97475.13;;;25.61;69.51
78170;BME280;67412;49.892;14.490;2023-06-22T08:04:15;97476.28;;;25.80;69.43
78170;BME280;67412;49.892;14.490;2023-06-22T08:06:41;97476.03;;;25.83;69.06
78170;BME280;67412;49.892;14.490;2023-06-22T08:09:06;97480.13;;;25.87;68.47
78170;BME280;67412;49.892;14.490;2023-06-22T08:11:31;97471.59;;;25.96;69.10
78170;BME280;67412;49.892;14.490;2023-06-22T08:13:57;97470.50;;;25.99;69.74
78170;BME280;67412;49.892;14.490;2023-06-22T08:16:23;97471.97;;;26.03;70.37
78170;BME280;67412;49.892;14.490;2023-06-22T08:18:49;97471.75;;;25.82;70.26
78170;BME280;67412;49.892;14.490;2023-06-22T08:21:14;97468.28;;;25.82;69.57
78170;BME280;67412;49.892;14.490;2023-06-22T08:23:39;97460.53;;;25.91;70.31
78170;BME280;67412;49.892;14.490;2023-06-22T08:26:04;97457.41;;;25.86;70.53
78170;BME280;67412;49.892;14.490;2023-06-22T08:28:30;97455.22;;;25.80;71.34
78170;BME280;67412;49.892;14.490;2023-06-22T08:30:55;97455.31;;;26.03;69.54
78170;BME280;67412;49.892;14.490;2023-06-22T08:33:21;97447.69;;;26.34;67.35
78170;BME280;67412;49.892;14.490;2023-06-22T08:35:48;97445.44;;;26.52;68.04
78170;BME280;67412;49.892;14.490;2023-06-22T08:38:14;97447.41;;;26.72;68.41
78170;BME280;67412;49.892;14.490;2023-06-22T08:40:40;97443.78;;;26.62;67.95
78170;BME280;67412;49.892;14.490;2023-06-22T08:43:06;97446.28;;;26.41;65.10
78170;BME280;67412;49.892;14.490;2023-06-22T08:45:31;97443.69;;;26.75;66.33
78170;BME280;67412;49.892;14.490;2023-06-22T08:47:56;97440.84;;;26.89;66.99
78170;BME280;67412;49.892;14.490;2023-06-22T08:50:22;97443.38;;;26.90;66.74
78170;BME280;67412;49.892;14.490;2023-06-22T08:52:47;97439.91;;;27.12;67.49
78170;BME280;67412;49.892;14.490;2023-06-22T08:55:13;97440.63;;;27.14;65.44
78170;BME280;67412;49.892;14.490;2023-06-22T08:57:39;97439.66;;;27.15;65.02
78170;BME280;67412;49.892;14.490;2023-06-22T09:00:09;97436.75;;;27.18;65.64
78170;BME280;67412;49.892;14.490;2023-06-22T09:02:41;97439.63;;;27.37;64.04
78170;BME280;67412;49.892;14.490;2023-06-22T09:05:06;97441.19;;;27.40;63.10
78170;BME280;67412;49.892;14.490;2023-06-22T09:07:32;97433.88;;;27.55;63.12
78170;BME280;67412;49.892;14.490;2023-06-22T09:09:57;97436.38;;;27.56;62.30
78170;BME280;67412;49.892;14.490;2023-06-22T09:12:22;97431.47;;;27.63;61.89
78170;BME280;67412;49.892;14.490;2023-06-22T09:14:51;97427.44;;;27.79;61.69
78170;BME280;67412;49.892;14.490;2023-06-22T09:17:16;97424.25;;;27.43;63.26
78170;BME280;67412;49.892;14.490;2023-06-22T09:19:42;97418.41;;;27.28;64.73
78170;BME280;67412;49.892;14.490;2023-06-22T09:22:07;97421.53;;;27.11;64.39
78170;BME280;67412;49.892;14.490;2023-06-22T09:24:33;97418.88;;;27.55;62.12
78170;BME280;67412;49.892;14.490;2023-06-22T09:26:58;97422.41;;;27.76;60.33
78170;BME280;67412;49.892;14.490;2023-06-22T09:29:23;97427.00;;;27.95;61.25
78170;BME280;67412;49.892;14.490;2023-06-22T09:31:49;97424.41;;;28.16;61.08
78170;BME280;67412;49.892;14.490;2023-06-22T09:34:14;97409.56;;;28.15;60.61
78170;BME280;67412;49.892;14.490;2023-06-22T09:36:41;97411.22;;;27.84;61.23
78170;BME280;67412;49.892;14.490;2023-06-22T09:39:06;97404.59;;;27.58;61.86
78170;BME280;67412;49.892;14.490;2023-06-22T09:41:32;97406.75;;;27.42;62.71
78170;BME280;67412;49.892;14.490;2023-06-22T09:43:57;97403.28;;;27.84;60.55
78170;BME280;67412;49.892;14.490;2023-06-22T09:46:22;97403.38;;;28.25;56.95
78170;BME280;67412;49.892;14.490;2023-06-22T09:48:50;97411.53;;;28.43;56.75
78170;BME280;67412;49.892;14.490;2023-06-22T09:51:15;97412.63;;;28.20;57.82
78170;BME280;67412;49.892;14.490;2023-06-22T09:53:41;97410.84;;;27.89;60.20
78170;BME280;67412;49.892;14.490;2023-06-22T09:56:06;97411.00;;;27.76;57.51
78170;BME280;67412;49.892;14.490;2023-06-22T09:58:31;97396.72;;;28.10;58.67
78170;BME280;67412;49.892;14.490;2023-06-22T10:00:57;97396.34;;;28.15;58.54
78170;BME280;67412;49.892;14.490;2023-06-22T10:03:22;97399.22;;;28.53;56.51
78170;BME280;67412;49.892;14.490;2023-06-22T10:05:48;97410.25;;;28.58;55.65
78170;BME280;67412;49.892;14.490;2023-06-22T10:08:13;97411.53;;;28.64;54.79
78170;BME280;67412;49.892;14.490;2023-06-22T10:10:38;97412.44;;;28.32;57.03
78170;BME280;67412;49.892;14.490;2023-06-22T10:13:08;97420.06;;;28.26;57.11
78170;BME280;67412;49.892;14.490;2023-06-22T10:15:35;97410.13;;;28.39;56.14
78170;BME280;67412;49.892;14.490;2023-06-22T10:18:01;97406.75;;;28.16;57.10
78170;BME280;67412;49.892;14.490;2023-06-22T10:20:26;97408.91;;;27.59;58.43
78170;BME280;67412;49.892;14.490;2023-06-22T10:22:53;97412.06;;;27.84;59.20
78170;BME280;67412;49.892;14.490;2023-06-22T10:25:18;97403.16;;;28.17;58.62
78170;BME280;67412;49.892;14.490;2023-06-22T10:27:44;97399.63;;;28.49;58.61
78170;BME280;67412;49.892;14.490;2023-06-22T10:30:11;97394.94;;;29.13;57.65
78170;BME280;67412;49.892;14.490;2023-06-22T10:32:40;97385.00;;;29.45;54.81
78170;BME280;67412;49.892;14.490;2023-06-22T10:35:06;97396.22;;;28.88;56.53
78170;BME280;67412;49.892;14.490;2023-06-22T10:37:32;97391.84;;;29.08;54.69
78170;BME280;67412;49.892;14.490;2023-06-22T10:39:58;97392.53;;;29.50;54.22
78170;BME280;67412;49.892;14.490;2023-06-22T10:42:23;97379.69;;;29.55;54.52
78170;BME280;67412;49.892;14.490;2023-06-22T10:44:49;97387.09;;;29.42;54.58
78170;BME280;67412;49.892;14.490;2023-06-22T10:47:14;97381.84;;;29.80;53.09
78170;BME280;67412;49.892;14.490;2023-06-22T10:49:40;97378.78;;;29.94;51.46
78170;BME280;67412;49.892;14.490;2023-06-22T10:52:07;97371.09;;;29.82;52.54
78170;BME280;67412;49.892;14.490;2023-06-22T10:54:33;97371.66;;;30.14;50.54
78170;BME280;67412;49.892;14.490;2023-06-22T10:56:59;97378.34;;;29.80;51.90
78170;BME280;67412;49.892;14.490;2023-06-22T10:59:24;97378.22;;;29.22;52.27
78170;BME280;67412;49.892;14.490;2023-06-22T11:01:51;97371.81;;;29.15;51.95
78170;BME280;67412;49.892;14.490;2023-06-22T11:04:16;97370.00;;;29.25;51.92
78170;BME280;67412;49.892;14.490;2023-06-22T11:06:43;97361.06;;;29.75;48.17
78170;BME280;67412;49.892;14.490;2023-06-22T11:09:08;97363.88;;;30.03;46.62
78170;BME280;67412;49.892;14.490;2023-06-22T11:11:34;97359.81;;;30.18;46.52
78170;BME280;67412;49.892;14.490;2023-06-22T11:13:59;97365.09;;;29.60;50.64
78170;BME280;67412;49.892;14.490;2023-06-22T11:16:25;97356.28;;;29.69;50.79
78170;BME280;67412;49.892;14.490;2023-06-22T11:18:50;97349.63;;;30.04;50.53
78170;BME280;67412;49.892;14.490;2023-06-22T11:21:16;97350.97;;;30.46;49.29
78170;BME280;67412;49.892;14.490;2023-06-22T11:23:42;97352.31;;;30.60;50.52
78170;BME280;67412;49.892;14.490;2023-06-22T11:26:07;97359.91;;;30.45;50.05
78170;BME280;67412;49.892;14.490;2023-06-22T11:28:33;97351.19;;;30.62;50.03
78170;BME280;67412;49.892;14.490;2023-06-22T11:30:58;97353.97;;;30.71;49.79
78170;BME280;67412;49.892;14.490;2023-06-22T11:33:24;97346.16;;;30.69;48.83
78170;BME280;67412;49.892;14.490;2023-06-22T11:35:49;97341.84;;;30.95;50.00
78170;BME280;67412;49.892;14.490;2023-06-22T11:38:14;97334.72;;;30.96;48.25
78170;BME280;67412;49.892;14.490;2023-06-22T11:40:40;97324.63;;;30.72;47.21
78170;BME280;67412;49.892;14.490;2023-06-22T11:43:05;97323.00;;;30.61;47.33
78170;BME280;67412;49.892;14.490;2023-06-22T11:45:30;97324.59;;;30.82;47.36
78170;BME280;67412;49.892;14.490;2023-06-22T11:47:56;97330.09;;;30.98;47.73
78170;BME280;67412;49.892;14.490;2023-06-22T11:50:21;97316.22;;;31.31;46.64
78170;BME280;67412;49.892;14.490;2023-06-22T11:52:47;97319.69;;;31.32;47.80
78170;BME280;67412;49.892;14.490;2023-06-22T11:55:12;97314.78;;;31.19;47.71
78170;BME280;67412;49.892;14.490;2023-06-22T11:57:38;97318.97;;;30.57;48.49
78170;BME280;67412;49.892;14.490;2023-06-22T12:00:04;97320.28;;;31.08;48.26
78170;BME280;67412;49.892;14.490;2023-06-22T12:02:41;97317.00;;;31.41;47.66
78170;BME280;67412;49.892;14.490;2023-06-22T12:05:07;97309.06;;;31.59;46.29
78170;BME280;67412;49.892;14.490;2023-06-22T12:07:33;97317.94;;;31.68;47.40
78170;BME280;67412;49.892;14.490;2023-06-22T12:09:58;97312.19;;;31.27;47.89
78170;BME280;67412;49.892;14.490;2023-06-22T12:12:24;97314.09;;;30.53;48.59
78170;BME280;67412;49.892;14.490;2023-06-22T12:14:49;97307.38;;;31.13;48.69
78170;BME280;67412;49.892;14.490;2023-06-22T12:17:14;97305.78;;;31.83;48.07
78170;BME280;67412;49.892;14.490;2023-06-22T12:19:40;97305.13;;;32.06;46.46
78170;BME280;67412;49.892;14.490;2023-06-22T12:22:05;97307.34;;;31.93;45.84
78170;BME280;67412;49.892;14.490;2023-06-22T12:24:31;97300.25;;;32.02;45.08
78170;BME280;67412;49.892;14.490;2023-06-22T12:26:56;97308.06;;;31.60;45.59
78170;BME280;67412;49.892;14.490;2023-06-22T12:29:21;97298.72;;;31.74;46.19
78170;BME280;67412;49.892;14.490;2023-06-22T12:31:46;97292.84;;;31.88;45.43
78170;BME280;67412;49.892;14.490;2023-06-22T12:34:12;97282.16;;;31.80;46.71
78170;BME280;67412;49.892;14.490;2023-06-22T12:36:37;97283.44;;;31.93;45.62
78170;BME280;67412;49.892;14.490;2023-06-22T12:39:02;97278.53;;;32.24;47.17
78170;BME280;67412;49.892;14.490;2023-06-22T12:41:28;97273.56;;;31.86;47.06
78170;BME280;67412;49.892;14.490;2023-06-22T12:43:53;97278.38;;;31.11;48.02
78170;BME280;67412;49.892;14.490;2023-06-22T12:46:18;97272.72;;;31.85;47.75